Time;durP1;ratioP1;P1;durP2;ratioP2;P2;SDS_P1;SDS_P2;PMS_P1;PMS_P2;Temp;Humidity;BMP_temperature;BMP_pressure;BME280_temperature;BME280_humidity;BME280_pressure;Samples;Min_cycle;Max_cycle;Signal;HPM_P1;HPM_P2
2023/05/30 00:01:21;;;;;;;13.02;3.72;;;12.20;99.90;;;;;;5101612;28;20430;-82
2023/05/30 00:03:48;;;;;;;12.88;3.58;;;12.30;99.90;;;;;;5105700;28;20031;-81
2023/05/30 00:06:14;;;;;;;9.18;3.38;;;12.20;99.90;;;;;;5107523;28;20061;-80
2023/05/30 00:08:41;;;;;;;10.20;3.50;;;12.20;99.90;;;;;;5102843;28;20040;-80
2023/05/30 00:11:07;;;;;;;9.43;3.35;;;12.20;99.90;;;;;;5105070;28;20073;-80
2023/05/30 00:13:33;;;;;;;12.02;3.42;;;12.20;99.90;;;;;;5093686;28;20133;-81
2023/05/30 00:16:00;;;;;;;10.77;3.17;;;12.20;99.90;;;;;;5098178;28;20129;-81
2023/05/30 00:18:34;;;;;;;8.00;3.17;;;12.30;99.90;;;;;;5105742;28;20027;-81
2023/05/30 00:21:05;;;;;;;7.97;3.33;;;12.30;99.90;;;;;;5111392;28;20039;-81
2023/05/30 00:23:31;;;;;;;11.20;3.50;;;12.30;99.90;;;;;;5090467;28;20066;-80
2023/05/30 00:25:57;;;;;;;6.38;2.97;;;12.20;99.90;;;;;;5106972;28;20072;-81
2023/05/30 00:28:23;;;;;;;6.63;3.30;;;12.20;99.90;;;;;;5100727;28;20035;-81
2023/05/30 00:30:48;;;;;;;9.75;3.40;;;12.30;99.90;;;;;;5100768;28;20046;-80
2023/05/30 00:33:14;;;;;;;11.80;3.42;;;12.20;99.90;;;;;;5103115;28;20028;-80
2023/05/30 00:35:40;;;;;;;9.40;2.80;;;12.20;99.90;;;;;;5106490;28;20135;-80
2023/05/30 00:38:05;;;;;;;12.05;3.08;;;12.10;99.90;;;;;;5105476;28;20031;-80
2023/05/30 00:40:31;;;;;;;7.32;2.58;;;12.20;99.90;;;;;;5098267;28;20055;-80
2023/05/30 00:42:57;;;;;;;8.05;2.88;;;12.20;99.90;;;;;;5089729;28;20111;-80
2023/05/30 00:45:22;;;;;;;10.38;3.05;;;12.20;99.90;;;;;;5106785;28;20399;-81
2023/05/30 00:47:51;;;;;;;11.05;3.42;;;12.10;99.90;;;;;;5106204;28;20040;-81
2023/05/30 00:50:18;;;;;;;13.32;3.33;;;12.00;99.90;;;;;;5106660;28;20047;-80
2023/05/30 00:52:45;;;;;;;12.13;2.80;;;12.10;99.90;;;;;;5103442;28;20039;-81
2023/05/30 00:55:10;;;;;;;8.73;2.45;;;12.10;99.90;;;;;;5089856;28;20498;-80
2023/05/30 00:57:36;;;;;;;13.00;3.20;;;12.10;99.90;;;;;;5109764;28;20040;-80
2023/05/30 01:00:03;;;;;;;9.05;2.83;;;12.00;99.90;;;;;;5106663;28;20039;-81
2023/05/30 01:02:32;;;;;;;8.55;2.75;;;12.10;99.90;;;;;;5113551;28;20036;-80
2023/05/30 01:04:59;;;;;;;11.18;3.35;;;12.20;99.90;;;;;;5108784;28;20076;-80
2023/05/30 01:07:24;;;;;;;6.13;2.50;;;12.20;99.90;;;;;;5115028;28;20051;-80
2023/05/30 01:09:52;;;;;;;8.00;3.20;;;12.20;99.90;;;;;;5112197;28;20040;-82
2023/05/30 01:12:42;;;;;;;8.23;2.67;;;12.20;99.90;;;;;;5111133;28;20408;-80
2023/05/30 01:15:21;;;;;;;8.60;2.70;;;12.20;99.90;;;;;;5104920;28;20043;-80
2023/05/30 01:18:01;;;;;;;10.65;3.03;;;12.10;99.90;;;;;;5105549;28;20457;-80
2023/05/30 01:20:31;;;;;;;12.02;3.22;;;12.00;99.90;;;;;;5080488;28;20403;-79
2023/05/30 01:23:27;;;;;;;12.45;2.92;;;12.00;99.90;;;;;;5113340;28;20042;-79
2023/05/30 01:26:07;;;;;;;8.95;2.92;;;11.90;99.90;;;;;;5111747;28;20092;-79
2023/05/30 01:28:36;;;;;;;10.63;2.92;;;11.90;99.90;;;;;;5103569;28;20078;-80
2023/05/30 01:31:03;;;;;;;9.40;3.10;;;11.90;99.90;;;;;;5109573;28;20201;-79
2023/05/30 01:33:30;;;;;;;8.52;3.08;;;11.70;99.90;;;;;;5093432;28;20110;-82
2023/05/30 01:35:55;;;;;;;11.93;3.83;;;11.70;99.90;;;;;;5106801;28;20092;-82
2023/05/30 01:38:21;;;;;;;13.43;3.25;;;11.70;99.90;;;;;;5089404;28;20031;-79
2023/05/30 01:40:51;;;;;;;8.10;3.67;;;11.70;99.90;;;;;;5080652;28;20143;-80
2023/05/30 01:43:38;;;;;;;10.60;3.10;;;11.80;99.90;;;;;;5110419;28;20042;-80
2023/05/30 01:46:22;;;;;;;10.90;3.08;;;11.80;99.90;;;;;;5090157;28;20514;-80
2023/05/30 01:48:57;;;;;;;7.93;2.97;;;11.70;99.90;;;;;;5086076;28;20126;-80
2023/05/30 01:51:33;;;;;;;9.52;2.90;;;11.70;99.90;;;;;;5108341;28;20511;-80
2023/05/30 01:54:02;;;;;;;12.40;3.17;;;11.70;99.90;;;;;;5108810;28;20043;-80
2023/05/30 01:56:29;;;;;;;9.95;3.10;;;11.70;99.90;;;;;;5090572;28;20084;-80
2023/05/30 01:58:56;;;;;;;11.65;3.00;;;11.70;99.90;;;;;;5112704;28;20099;-80
2023/05/30 02:01:25;;;;;;;12.10;3.45;;;11.70;99.90;;;;;;5112913;28;20049;-80
2023/05/30 02:03:51;;;;;;;8.57;2.60;;;11.80;99.90;;;;;;5109679;28;20050;-80
2023/05/30 02:06:16;;;;;;;17.65;3.63;;;11.80;99.90;;;;;;5097057;28;20031;-80
2023/05/30 02:08:42;;;;;;;8.95;3.47;;;11.70;99.90;;;;;;5109423;28;20036;-81
2023/05/30 02:11:08;;;;;;;10.02;3.13;;;11.60;99.90;;;;;;5093589;28;20043;-81
2023/05/30 02:13:33;;;;;;;13.75;3.20;;;11.60;99.90;;;;;;5104036;28;20530;-80
2023/05/30 02:15:58;;;;;;;8.25;3.30;;;11.60;99.90;;;;;;5114907;28;20445;-80
2023/05/30 02:18:27;;;;;;;9.02;3.35;;;11.60;99.90;;;;;;5111547;28;20036;-80
2023/05/30 02:20:56;;;;;;;9.18;3.15;;;11.60;99.90;;;;;;5113836;28;20074;-80
2023/05/30 02:23:21;;;;;;;9.88;3.30;;;11.60;99.90;;;;;;5107775;28;20030;-80
2023/05/30 02:25:47;;;;;;;9.23;3.20;;;11.70;99.90;;;;;;5109852;28;20106;-83
2023/05/30 02:28:13;;;;;;;9.63;3.25;;;11.70;99.90;;;;;;5109304;28;20092;-80
2023/05/30 02:30:38;;;;;;;11.20;3.20;;;11.70;99.90;;;;;;5106292;28;20333;-79
2023/05/30 02:33:04;;;;;;;13.27;3.60;;;11.70;99.90;;;;;;5111242;28;20122;-81
2023/05/30 02:35:29;;;;;;;8.05;3.53;;;11.80;99.90;;;;;;5087040;28;20047;-80
2023/05/30 02:37:55;;;;;;;8.23;3.50;;;11.70;99.90;;;;;;5108409;28;20058;-80
2023/05/30 02:40:21;;;;;;;10.43;3.20;;;11.70;99.90;;;;;;5104299;28;20116;-80
2023/05/30 02:42:46;;;;;;;10.15;3.13;;;11.70;99.90;;;;;;5104972;28;20040;-80
2023/05/30 02:45:12;;;;;;;14.90;3.30;;;11.70;99.90;;;;;;5111551;28;20464;-80
2023/05/30 02:47:38;;;;;;;11.63;3.67;;;11.70;99.90;;;;;;5110945;28;20534;-81
2023/05/30 02:50:04;;;;;;;7.28;3.22;;;11.70;99.90;;;;;;5113711;28;20074;-81
2023/05/30 02:52:30;;;;;;;11.85;3.97;;;11.70;99.90;;;;;;5106809;28;20046;-80
2023/05/30 02:54:55;;;;;;;7.90;3.10;;;11.60;99.90;;;;;;5105662;28;20436;-80
2023/05/30 02:57:21;;;;;;;9.98;3.95;;;11.60;99.90;;;;;;5108128;28;20122;-80
2023/05/30 02:59:47;;;;;;;9.75;3.80;;;11.70;99.90;;;;;;5106481;28;20044;-80
2023/05/30 03:02:13;;;;;;;10.55;3.42;;;11.60;99.90;;;;;;5088951;28;20034;-80
2023/05/30 03:04:38;;;;;;;8.63;3.60;;;11.50;99.90;;;;;;5108475;28;20028;-80
2023/05/30 03:07:08;;;;;;;10.02;3.70;;;11.50;99.90;;;;;;5097816;28;20095;-80
2023/05/30 03:09:34;;;;;;;11.93;3.70;;;11.50;99.90;;;;;;5110082;28;20036;-80
2023/05/30 03:12:00;;;;;;;11.60;4.10;;;11.40;99.90;;;;;;5111926;28;20092;-80
2023/05/30 03:14:26;;;;;;;11.20;3.05;;;11.40;99.90;;;;;;5102792;28;20058;-81
2023/05/30 03:16:51;;;;;;;10.65;3.63;;;11.40;99.90;;;;;;5102937;28;20036;-79
2023/05/30 03:19:17;;;;;;;10.32;3.22;;;11.40;99.90;;;;;;5104918;28;20515;-80
2023/05/30 03:21:43;;;;;;;11.95;3.25;;;11.40;99.90;;;;;;5106651;28;20059;-79
2023/05/30 03:24:08;;;;;;;10.88;3.60;;;11.40;99.90;;;;;;5077759;28;20173;-81
2023/05/30 03:26:34;;;;;;;13.10;4.13;;;11.40;99.90;;;;;;5104220;28;20036;-80
2023/05/30 03:29:00;;;;;;;8.40;3.35;;;11.40;99.90;;;;;;5098341;28;20040;-80
2023/05/30 03:31:27;;;;;;;9.35;2.95;;;11.50;99.90;;;;;;5107956;27;20079;-80
2023/05/30 03:33:53;;;;;;;7.97;3.50;;;11.50;99.90;;;;;;5109459;28;20458;-80
2023/05/30 03:36:18;;;;;;;8.90;3.30;;;11.40;99.90;;;;;;5103437;28;20106;-81
2023/05/30 03:38:44;;;;;;;9.80;3.90;;;11.40;99.90;;;;;;5087066;28;20472;-80
2023/05/30 03:41:10;;;;;;;12.75;3.45;;;11.40;99.90;;;;;;5079460;28;20061;-80
2023/05/30 03:43:35;;;;;;;9.95;3.10;;;11.40;99.90;;;;;;5110550;28;20069;-80
2023/05/30 03:46:01;;;;;;;8.88;3.17;;;11.40;99.90;;;;;;5104287;28;20036;-80
2023/05/30 03:48:26;;;;;;;16.10;4.35;;;11.40;99.90;;;;;;5089296;28;20036;-79
2023/05/30 03:50:52;;;;;;;13.57;4.25;;;11.40;99.90;;;;;;5108444;28;20032;-79
2023/05/30 03:53:17;;;;;;;11.43;4.00;;;11.40;99.90;;;;;;5105781;28;20031;-79
2023/05/30 03:55:43;;;;;;;10.45;3.40;;;11.50;99.90;;;;;;5099773;28;20062;-79
2023/05/30 03:58:08;;;;;;;12.65;3.75;;;11.50;99.90;;;;;;5085505;28;20507;-79
2023/05/30 04:00:34;;;;;;;11.27;3.72;;;11.50;99.90;;;;;;5097185;28;20071;-80
2023/05/30 04:03:00;;;;;;;9.20;3.55;;;11.60;99.90;;;;;;5097085;28;20467;-80
2023/05/30 04:05:26;;;;;;;9.38;3.35;;;11.60;99.90;;;;;;5099661;28;20043;-80
2023/05/30 04:07:51;;;;;;;15.63;3.97;;;11.60;99.90;;;;;;5088556;28;20035;-80
2023/05/30 04:10:17;;;;;;;8.65;3.40;;;11.70;99.90;;;;;;5094770;28;20039;-81
2023/05/30 04:12:43;;;;;;;9.85;3.47;;;11.70;99.90;;;;;;5105555;28;20414;-80
2023/05/30 04:15:09;;;;;;;12.65;3.97;;;11.70;99.90;;;;;;5105369;28;20086;-80
2023/05/30 04:17:35;;;;;;;11.98;3.63;;;11.80;99.90;;;;;;5105657;28;20051;-79
2023/05/30 04:20:01;;;;;;;11.95;3.67;;;11.80;99.90;;;;;;5102414;28;20032;-79
2023/05/30 04:22:26;;;;;;;12.60;3.67;;;11.90;99.90;;;;;;5107535;28;20123;-79
2023/05/30 04:24:52;;;;;;;11.65;3.13;;;11.90;99.90;;;;;;5107749;28;20033;-79
2023/05/30 04:27:19;;;;;;;13.85;3.83;;;11.90;99.90;;;;;;5106619;28;20059;-79
2023/05/30 04:29:46;;;;;;;10.98;3.75;;;11.90;99.90;;;;;;5109096;28;20040;-79
2023/05/30 04:32:11;;;;;;;16.50;3.72;;;11.90;99.90;;;;;;5092079;28;20044;-80
2023/05/30 04:34:39;;;;;;;10.80;3.60;;;11.90;99.90;;;;;;5084110;28;20042;-79
2023/05/30 04:37:06;;;;;;;12.35;3.47;;;11.90;99.90;;;;;;5103141;28;20093;-79
2023/05/30 04:39:32;;;;;;;12.18;4.07;;;11.90;99.90;;;;;;5099742;28;20036;-80
2023/05/30 04:41:58;;;;;;;12.93;3.95;;;11.90;99.90;;;;;;5108899;28;20040;-80
2023/05/30 04:44:24;;;;;;;16.38;3.90;;;11.90;99.90;;;;;;5114157;28;20115;-79
2023/05/30 04:46:50;;;;;;;10.25;3.33;;;11.90;99.90;;;;;;5107214;28;20119;-79
2023/05/30 04:49:16;;;;;;;9.63;3.40;;;11.90;99.90;;;;;;5105022;28;20061;-79
2023/05/30 04:51:45;;;;;;;12.23;3.25;;;11.90;99.90;;;;;;5113591;28;20407;-79
2023/05/30 04:54:12;;;;;;;9.60;3.83;;;12.00;99.90;;;;;;5097656;28;20092;-79
2023/05/30 04:56:39;;;;;;;8.93;3.95;;;11.90;99.90;;;;;;5103355;28;20078;-79
2023/05/30 04:59:05;;;;;;;10.05;3.70;;;12.00;99.90;;;;;;5110961;28;20071;-80
2023/05/30 05:01:35;;;;;;;11.15;3.72;;;11.90;99.90;;;;;;5113937;28;20046;-79
2023/05/30 05:04:01;;;;;;;10.65;3.38;;;12.00;99.90;;;;;;5106858;28;20081;-79
2023/05/30 05:06:27;;;;;;;9.68;3.30;;;11.90;99.90;;;;;;5106994;28;20089;-79
2023/05/30 05:08:53;;;;;;;11.02;3.38;;;12.00;99.90;;;;;;5107341;28;20446;-79
2023/05/30 05:11:18;;;;;;;9.27;3.10;;;12.00;99.90;;;;;;5111631;28;20555;-79
2023/05/30 05:13:44;;;;;;;13.13;3.05;;;12.10;99.90;;;;;;5085935;28;20040;-79
2023/05/30 05:16:09;;;;;;;7.95;3.00;;;12.00;99.90;;;;;;5089719;28;20039;-78
2023/05/30 05:18:35;;;;;;;7.38;2.70;;;12.00;99.90;;;;;;5107880;28;20046;-79
2023/05/30 05:21:00;;;;;;;8.10;2.55;;;12.00;99.90;;;;;;5098724;28;20036;-78
2023/05/30 05:23:28;;;;;;;7.90;3.00;;;12.00;99.90;;;;;;5111002;28;20040;-79
2023/05/30 05:25:53;;;;;;;9.05;3.28;;;12.00;99.90;;;;;;5076732;28;20035;-78
2023/05/30 05:28:19;;;;;;;10.02;2.90;;;12.10;99.90;;;;;;5099238;28;20040;-78
2023/05/30 05:30:45;;;;;;;11.15;2.60;;;12.00;99.90;;;;;;5105833;28;20101;-76
2023/05/30 05:33:13;;;;;;;10.45;2.72;;;12.10;99.90;;;;;;5106815;28;20068;-78
2023/05/30 05:35:38;;;;;;;7.78;2.58;;;12.10;99.90;;;;;;5100500;28;20051;-78
2023/05/30 05:38:04;;;;;;;7.82;2.90;;;12.10;99.90;;;;;;5101069;28;20546;-77
2023/05/30 05:40:30;;;;;;;8.20;2.58;;;12.10;99.90;;;;;;5102073;28;20043;-77
2023/05/30 05:42:55;;;;;;;8.88;2.70;;;12.00;99.90;;;;;;5102924;28;20499;-77
2023/05/30 05:45:21;;;;;;;7.70;3.15;;;12.00;99.90;;;;;;5103677;28;20038;-78
2023/05/30 05:47:46;;;;;;;5.88;2.47;;;12.00;99.90;;;;;;5096399;28;20123;-77
2023/05/30 05:50:12;;;;;;;8.50;2.78;;;12.00;99.90;;;;;;5095143;28;20052;-77
2023/05/30 05:52:38;;;;;;;7.63;2.90;;;12.00;99.90;;;;;;5109461;28;20399;-78
2023/05/30 05:55:03;;;;;;;7.95;2.97;;;12.10;99.90;;;;;;5110123;28;20554;-77
2023/05/30 05:57:29;;;;;;;8.57;3.03;;;12.10;99.90;;;;;;5105016;28;20071;-78
2023/05/30 05:59:55;;;;;;;9.30;3.42;;;12.20;99.90;;;;;;5107636;28;20059;-79
2023/05/30 06:02:20;;;;;;;6.70;2.90;;;12.20;99.90;;;;;;5110186;28;20134;-77
2023/05/30 06:04:47;;;;;;;8.77;2.58;;;12.20;99.90;;;;;;5105655;28;20432;-77
2023/05/30 06:07:13;;;;;;;7.05;2.70;;;12.20;99.90;;;;;;5109046;28;20142;-77
2023/05/30 06:09:39;;;;;;;9.98;2.55;;;12.30;99.90;;;;;;5102289;28;20119;-77
2023/05/30 06:12:05;;;;;;;5.43;2.60;;;12.30;99.90;;;;;;5110862;28;20559;-77
2023/05/30 06:14:31;;;;;;;6.35;2.50;;;12.30;99.90;;;;;;5107914;28;20119;-78
2023/05/30 06:16:56;;;;;;;8.82;2.70;;;12.30;99.90;;;;;;5108257;28;20131;-77
2023/05/30 06:19:22;;;;;;;8.02;3.13;;;12.30;99.90;;;;;;5097460;27;20028;-77
2023/05/30 06:21:48;;;;;;;9.07;2.85;;;12.30;99.90;;;;;;5107587;28;20036;-78
2023/05/30 06:24:13;;;;;;;6.80;2.35;;;12.20;99.90;;;;;;5119455;27;20027;-79
2023/05/30 06:26:39;;;;;;;7.90;2.70;;;12.20;99.90;;;;;;5105010;28;20601;-77
2023/05/30 06:29:05;;;;;;;9.90;2.50;;;12.30;99.90;;;;;;5095608;28;20047;-77
2023/05/30 06:31:30;;;;;;;6.25;2.40;;;12.30;99.90;;;;;;5107618;28;20036;-77
2023/05/30 06:33:55;;;;;;;4.95;2.20;;;12.40;99.90;;;;;;5103140;28;20040;-77
2023/05/30 06:36:21;;;;;;;7.18;2.58;;;12.50;99.90;;;;;;5101920;28;20170;-77
2023/05/30 06:38:47;;;;;;;5.05;2.00;;;12.40;99.90;;;;;;5102088;28;20093;-78
2023/05/30 06:41:13;;;;;;;5.03;1.92;;;12.40;99.90;;;;;;5110277;28;20031;-78
2023/05/30 06:43:39;;;;;;;5.85;2.00;;;12.50;99.90;;;;;;5106691;28;20036;-78
2023/05/30 06:46:05;;;;;;;5.30;2.00;;;12.50;99.90;;;;;;5101265;28;20028;-77
2023/05/30 06:48:30;;;;;;;5.13;1.90;;;12.50;99.90;;;;;;5102693;28;20407;-77
2023/05/30 06:50:56;;;;;;;4.78;2.20;;;12.40;99.90;;;;;;5101679;28;20036;-79
2023/05/30 06:53:21;;;;;;;6.05;1.92;;;12.30;99.90;;;;;;5103419;28;20435;-79
2023/05/30 06:55:47;;;;;;;5.80;2.20;;;12.30;99.90;;;;;;5096620;28;20039;-77
2023/05/30 06:58:13;;;;;;;7.82;2.58;;;12.40;99.90;;;;;;5091076;28;20040;-79
2023/05/30 07:00:39;;;;;;;6.72;2.10;;;12.40;99.90;;;;;;5105592;28;20043;-77
2023/05/30 07:03:04;;;;;;;6.40;2.20;;;12.40;99.90;;;;;;5100576;28;20028;-77
2023/05/30 07:05:30;;;;;;;7.90;2.83;;;12.40;99.90;;;;;;5102986;28;20058;-77
2023/05/30 07:07:55;;;;;;;4.75;1.77;;;12.50;99.90;;;;;;5093510;28;20044;-77
2023/05/30 07:10:21;;;;;;;7.03;2.55;;;12.60;99.90;;;;;;5107046;28;20126;-78
2023/05/30 07:12:47;;;;;;;5.10;1.80;;;12.70;99.90;;;;;;5098608;28;20126;-77
2023/05/30 07:15:13;;;;;;;6.75;2.10;;;12.70;99.90;;;;;;5100635;28;20074;-78
2023/05/30 07:17:39;;;;;;;5.00;2.17;;;12.80;99.90;;;;;;5103191;28;20423;-77
2023/05/30 07:20:05;;;;;;;3.67;1.90;;;12.80;99.90;;;;;;5104573;28;20111;-78
2023/05/30 07:22:31;;;;;;;5.82;1.85;;;12.80;99.90;;;;;;5094273;28;20032;-77
2023/05/30 07:24:57;;;;;;;5.18;2.42;;;12.70;99.90;;;;;;5104824;28;20043;-77
2023/05/30 07:27:22;;;;;;;4.40;1.92;;;12.60;99.90;;;;;;5106313;28;20164;-78
2023/05/30 07:29:48;;;;;;;5.65;1.92;;;12.70;99.90;;;;;;5102261;28;20032;-78
2023/05/30 07:32:13;;;;;;;3.95;2.08;;;12.80;99.90;;;;;;5110060;28;20118;-78
2023/05/30 07:34:40;;;;;;;6.35;2.20;;;12.80;99.90;;;;;;5110333;28;20456;-78
2023/05/30 07:37:06;;;;;;;5.50;1.95;;;12.80;99.90;;;;;;5102460;28;20054;-78
2023/05/30 07:39:31;;;;;;;5.93;2.05;;;12.80;99.90;;;;;;5097929;27;20410;-77
2023/05/30 07:41:57;;;;;;;4.32;1.75;;;12.90;99.90;;;;;;5107818;28;20031;-77
2023/05/30 07:44:22;;;;;;;6.13;1.90;;;13.00;99.90;;;;;;5085985;28;20038;-77
2023/05/30 07:46:48;;;;;;;3.53;2.03;;;13.10;99.90;;;;;;5110353;28;20040;-77
2023/05/30 07:49:14;;;;;;;4.80;1.85;;;13.20;99.90;;;;;;5102886;28;20023;-77
2023/05/30 07:51:39;;;;;;;6.25;2.22;;;13.20;99.90;;;;;;5103422;28;20043;-77
2023/05/30 07:54:05;;;;;;;3.88;1.63;;;13.10;99.90;;;;;;5098231;28;20456;-77
2023/05/30 07:56:31;;;;;;;6.13;2.05;;;13.20;99.90;;;;;;5099345;28;20047;-77
2023/05/30 07:58:57;;;;;;;4.93;1.88;;;13.20;99.90;;;;;;5108126;28;20084;-78
2023/05/30 08:01:22;;;;;;;4.82;1.98;;;13.20;99.90;;;;;;5098881;28;20028;-78
2023/05/30 08:03:48;;;;;;;5.20;2.03;;;13.10;99.90;;;;;;5101898;28;20040;-77
2023/05/30 08:06:14;;;;;;;4.32;2.20;;;13.10;99.90;;;;;;5103310;28;20035;-78
2023/05/30 08:08:40;;;;;;;4.43;2.00;;;13.10;99.90;;;;;;5108597;28;20119;-77
2023/05/30 08:11:05;;;;;;;6.25;2.15;;;13.30;99.90;;;;;;5105396;28;20517;-77
2023/05/30 08:13:31;;;;;;;3.63;2.10;;;13.30;99.90;;;;;;5107128;28;20130;-77
2023/05/30 08:15:57;;;;;;;5.03;1.80;;;13.20;99.90;;;;;;5104069;28;20042;-77
2023/05/30 08:18:23;;;;;;;4.15;2.17;;;13.20;99.90;;;;;;5108698;28;20032;-77
2023/05/30 08:20:54;;;;;;;5.68;2.10;;;13.20;99.90;;;;;;5102746;28;20044;-77
2023/05/30 08:23:20;;;;;;;3.90;2.15;;;13.10;99.90;;;;;;5086753;28;20027;-77
2023/05/30 08:25:46;;;;;;;6.63;2.28;;;13.10;99.90;;;;;;5105636;28;20032;-77
2023/05/30 08:28:12;;;;;;;3.47;1.75;;;13.30;99.90;;;;;;5096276;28;20106;-77
2023/05/30 08:30:38;;;;;;;5.72;2.38;;;13.30;99.90;;;;;;5099601;28;20051;-77
2023/05/30 08:33:04;;;;;;;4.60;2.45;;;13.20;99.90;;;;;;5103857;28;20052;-77
2023/05/30 08:35:30;;;;;;;4.57;2.17;;;13.10;99.90;;;;;;5102534;28;20071;-78
2023/05/30 08:37:57;;;;;;;3.35;1.73;;;13.10;99.90;;;;;;5099855;28;20124;-77
2023/05/30 08:40:26;;;;;;;5.03;1.70;;;13.30;99.90;;;;;;5095482;28;20036;-78
2023/05/30 08:42:51;;;;;;;2.58;1.40;;;13.70;99.90;;;;;;5089281;28;20051;-77
2023/05/30 08:45:19;;;;;;;3.65;1.50;;;13.90;99.90;;;;;;5089465;28;20032;-78
2023/05/30 08:47:46;;;;;;;2.67;1.15;;;14.30;99.90;;;;;;5088960;28;20524;-77
2023/05/30 08:50:12;;;;;;;3.55;1.27;;;14.50;99.90;;;;;;5089346;28;20032;-77
2023/05/30 08:52:40;;;;;;;2.80;1.00;;;14.40;99.90;;;;;;5072692;28;20063;-77
2023/05/30 08:55:16;;;;;;;3.08;1.48;;;14.40;99.90;;;;;;5089441;28;20081;-77
2023/05/30 08:58:00;;;;;;;2.50;1.20;;;14.30;99.90;;;;;;5089531;28;20044;-77
2023/05/30 09:00:26;;;;;;;2.78;1.20;;;14.20;99.90;;;;;;5089672;28;20093;-77
2023/05/30 09:02:55;;;;;;;4.18;0.68;;;14.30;99.90;;;;;;5089851;28;20132;-78
2023/05/30 09:05:21;;;;;;;1.40;0.57;;;14.20;99.90;;;;;;5089619;28;20053;-77
2023/05/30 09:07:47;;;;;;;2.28;0.43;;;14.00;99.90;;;;;;5089958;28;20468;-78
2023/05/30 09:10:15;;;;;;;2.53;0.70;;;14.10;99.90;;;;;;5089675;28;20036;-77
2023/05/30 09:12:42;;;;;;;1.42;0.60;;;14.30;99.90;;;;;;5106073;28;20107;-77
2023/05/30 09:15:07;;;;;;;1.48;0.77;;;14.50;99.90;;;;;;5110209;28;20380;-77
2023/05/30 09:17:33;;;;;;;2.53;0.90;;;14.50;99.90;;;;;;5097888;28;20040;-77
2023/05/30 09:19:59;;;;;;;1.40;0.50;;;14.50;99.90;;;;;;5092875;28;20062;-77
2023/05/30 09:22:27;;;;;;;2.50;0.70;;;14.50;99.90;;;;;;5092586;28;20036;-77
2023/05/30 09:24:59;;;;;;;3.17;0.50;;;14.30;99.90;;;;;;5091846;28;20036;-77
2023/05/30 09:27:26;;;;;;;1.05;0.50;;;14.10;99.90;;;;;;5092869;28;20040;-77
2023/05/30 09:29:52;;;;;;;1.25;0.50;;;14.20;99.90;;;;;;5076087;28;20372;-77
2023/05/30 09:32:18;;;;;;;1.45;0.50;;;14.10;99.90;;;;;;5093029;28;20101;-77
2023/05/30 09:34:55;;;;;;;1.10;0.38;;;14.00;99.90;;;;;;5093097;28;20051;-77
2023/05/30 09:37:21;;;;;;;1.50;0.50;;;14.10;99.90;;;;;;5092746;28;20113;-77
2023/05/30 09:40:07;;;;;;;0.98;0.40;;;13.90;99.90;;;;;;5092444;28;20499;-76
2023/05/30 09:42:44;;;;;;;1.45;0.60;;;13.70;99.90;;;;;;5092475;28;20040;-77
2023/05/30 09:45:22;;;;;;;0.88;0.60;;;13.70;99.90;;;;;;5092564;28;20047;-77
2023/05/30 09:47:50;;;;;;;1.23;0.70;;;13.80;99.90;;;;;;5092468;28;20492;-77
2023/05/30 09:50:17;;;;;;;2.22;0.75;;;13.80;99.90;;;;;;5092184;28;20165;-77
2023/05/30 09:52:43;;;;;;;2.45;0.80;;;13.80;99.90;;;;;;5092592;28;20316;-77
2023/05/30 09:55:11;;;;;;;0.82;0.50;;;13.90;99.90;;;;;;5092305;28;20113;-77
2023/05/30 09:57:39;;;;;;;0.60;0.50;;;14.10;99.90;;;;;;5092236;28;20036;-77
2023/05/30 10:00:09;;;;;;;1.17;0.50;;;14.30;99.90;;;;;;5091684;28;20040;-77
2023/05/30 10:02:36;;;;;;;1.38;0.50;;;14.50;99.90;;;;;;5092526;28;20050;-77
2023/05/30 10:05:03;;;;;;;2.70;0.60;;;15.00;99.90;;;;;;5092374;28;20467;-77
2023/05/30 10:07:29;;;;;;;1.73;0.50;;;15.40;99.90;;;;;;5092358;28;20047;-77
2023/05/30 10:09:56;;;;;;;1.10;0.30;;;15.60;99.90;;;;;;5092123;28;20563;-78
2023/05/30 10:12:23;;;;;;;1.08;0.40;;;15.70;99.90;;;;;;5100599;28;20038;-77
2023/05/30 10:14:49;;;;;;;1.13;0.45;;;15.90;99.90;;;;;;5109169;28;20481;-77
2023/05/30 10:17:17;;;;;;;1.52;0.60;;;16.00;99.90;;;;;;5093163;28;20067;-78
2023/05/30 10:19:56;;;;;;;1.58;0.70;;;16.00;99.90;;;;;;5091259;28;20043;-77
2023/05/30 10:22:26;;;;;;;1.63;0.60;;;15.90;99.90;;;;;;5091476;28;20036;-77
2023/05/30 10:24:52;;;;;;;1.27;0.80;;;15.70;99.90;;;;;;5091986;28;20063;-77
2023/05/30 10:27:26;;;;;;;1.67;0.82;;;15.50;99.90;;;;;;5090578;28;20044;-77
2023/05/30 10:30:07;;;;;;;1.95;0.90;;;15.30;99.90;;;;;;5090629;28;20032;-77
2023/05/30 10:32:43;;;;;;;4.35;0.90;;;15.30;99.90;;;;;;5091678;28;20040;-77
2023/05/30 10:35:11;;;;;;;2.60;0.75;;;15.20;99.90;;;;;;5074895;28;20105;-77
2023/05/30 10:37:38;;;;;;;3.28;0.77;;;15.20;99.90;;;;;;5074906;28;20040;-78
2023/05/30 10:40:20;;;;;;;0.90;0.70;;;15.20;99.90;;;;;;5091555;28;20044;-78
2023/05/30 10:42:59;;;;;;;2.22;0.80;;;15.20;99.90;;;;;;5074771;28;20410;-77
2023/05/30 10:45:33;;;;;;;1.95;1.27;;;15.10;99.90;;;;;;5091167;28;20066;-77
2023/05/30 10:48:14;;;;;;;1.85;0.98;;;15.00;99.90;;;;;;5101156;28;20036;-77
2023/05/30 10:50:46;;;;;;;1.15;0.63;;;15.00;99.90;;;;;;5090830;28;20040;-77
2023/05/30 10:53:20;;;;;;;1.98;0.77;;;14.80;99.90;;;;;;5091273;28;20097;-78
2023/05/30 10:55:49;;;;;;;1.80;0.90;;;14.70;99.90;;;;;;5090429;28;20173;-77
2023/05/30 10:58:46;;;;;;;1.05;0.70;;;14.80;99.90;;;;;;5090141;28;20123;-77
2023/05/30 11:01:28;;;;;;;2.17;0.90;;;14.90;99.90;;;;;;5077953;28;20487;-76
2023/05/30 11:03:59;;;;;;;1.55;0.80;;;15.00;99.90;;;;;;5090485;28;20043;-77
2023/05/30 11:06:33;;;;;;;1.23;1.00;;;14.90;99.90;;;;;;5090794;28;20101;-77
2023/05/30 11:09:09;;;;;;;2.15;0.88;;;14.70;99.90;;;;;;5090322;28;20503;-77
2023/05/30 11:11:43;;;;;;;1.35;0.80;;;14.70;99.90;;;;;;5090217;28;20047;-77
2023/05/30 11:14:13;;;;;;;2.10;1.10;;;14.80;99.90;;;;;;5095633;28;20036;-77
2023/05/30 11:16:54;;;;;;;2.13;0.93;;;14.90;99.90;;;;;;5104522;28;20502;-78
2023/05/30 11:19:22;;;;;;;1.80;1.10;;;14.90;99.90;;;;;;5102830;28;20035;-78
2023/05/30 11:21:54;;;;;;;2.58;1.20;;;14.80;99.90;;;;;;5101596;28;20036;-77
2023/05/30 11:24:20;;;;;;;2.75;1.00;;;15.00;99.90;;;;;;5110488;28;20106;-77
2023/05/30 11:27:07;;;;;;;2.13;1.20;;;15.10;99.90;;;;;;5099418;28;20118;-77
2023/05/30 11:29:36;;;;;;;1.30;0.95;;;15.40;99.90;;;;;;5093923;28;20434;-78
2023/05/30 11:32:06;;;;;;;1.65;1.10;;;15.70;99.90;;;;;;5108537;28;20046;-77
2023/05/30 11:34:36;;;;;;;1.80;0.88;;;15.80;99.90;;;;;;5098303;28;20404;-77
2023/05/30 11:37:02;;;;;;;2.53;1.30;;;16.10;99.90;;;;;;5097698;28;20432;-78
2023/05/30 11:39:31;;;;;;;1.33;0.98;;;16.20;99.90;;;;;;5103525;28;20036;-78
2023/05/30 11:41:57;;;;;;;1.70;1.05;;;16.40;99.90;;;;;;5101796;28;20027;-77
2023/05/30 11:44:22;;;;;;;1.48;0.90;;;16.60;99.90;;;;;;5096740;28;20023;-78
2023/05/30 11:47:06;;;;;;;1.00;0.90;;;16.60;99.90;;;;;;5107042;28;20067;-77
2023/05/30 11:49:33;;;;;;;1.65;0.98;;;16.70;99.90;;;;;;5101928;28;20039;-77
2023/05/30 11:51:59;;;;;;;1.77;1.08;;;16.80;99.90;;;;;;5105378;27;20054;-78
2023/05/30 11:54:25;;;;;;;1.50;1.20;;;16.90;99.90;;;;;;5097839;28;20040;-77
2023/05/30 11:56:51;;;;;;;1.88;1.20;;;16.90;99.90;;;;;;5101670;28;20047;-77
2023/05/30 11:59:19;;;;;;;1.80;1.35;;;16.60;99.90;;;;;;5103371;28;20035;-77
2023/05/30 12:01:53;;;;;;;4.07;1.20;;;16.50;99.90;;;;;;5108765;28;20050;-77
2023/05/30 12:04:27;;;;;;;1.98;1.00;;;16.30;99.90;;;;;;5105672;28;20027;-78
2023/05/30 12:07:00;;;;;;;2.00;1.20;;;16.20;99.90;;;;;;5086081;28;20035;-77
2023/05/30 12:09:27;;;;;;;4.20;1.15;;;16.20;99.90;;;;;;5103576;28;20114;-77
2023/05/30 12:11:55;;;;;;;2.08;1.20;;;16.00;99.90;;;;;;5088452;28;20069;-78
2023/05/30 12:14:29;;;;;;;1.50;1.00;;;16.20;99.90;;;;;;5104120;28;20040;-78
2023/05/30 12:16:56;;;;;;;2.80;1.25;;;16.30;99.90;;;;;;5103485;28;20718;-77
2023/05/30 12:19:29;;;;;;;2.00;1.10;;;16.50;99.90;;;;;;5106688;28;20441;-78
2023/05/30 12:21:55;;;;;;;2.00;0.85;;;16.70;99.90;;;;;;5099577;28;20044;-79
2023/05/30 12:24:25;;;;;;;1.50;0.80;;;16.80;99.90;;;;;;5107211;28;20499;-77
2023/05/30 12:26:55;;;;;;;1.65;0.80;;;16.90;99.90;;;;;;5103514;28;20036;-77
2023/05/30 12:29:25;;;;;;;1.48;0.98;;;16.90;99.90;;;;;;5103969;28;20039;-78
2023/05/30 12:31:52;;;;;;;0.95;0.80;;;17.10;99.90;;;;;;5104515;28;20519;-78
2023/05/30 12:34:18;;;;;;;1.95;0.82;;;17.10;99.90;;;;;;5099719;28;20074;-78
2023/05/30 12:36:46;;;;;;;2.03;0.85;;;17.10;99.90;;;;;;5084976;28;20407;-78
2023/05/30 12:39:12;;;;;;;3.10;1.00;;;17.10;99.90;;;;;;5083918;28;20039;-79
2023/05/30 12:41:40;;;;;;;3.40;0.90;;;17.20;99.90;;;;;;5103650;28;20039;-78
2023/05/30 12:44:07;;;;;;;2.65;0.90;;;17.30;99.90;;;;;;5093774;28;20503;-78
2023/05/30 12:46:36;;;;;;;1.52;0.90;;;17.30;99.90;;;;;;5113108;28;20121;-78
2023/05/30 12:49:03;;;;;;;1.80;0.93;;;17.30;99.90;;;;;;5105607;28;20470;-79